Kingston, New Mexico
Current Conditions -  °F | °C
As of 11:53 PM on Wednesday 22 Oct 2014 (Local Time) from KTCS Reporting Station
Clear Clear  
Wind Chill: 59°   Ceiling: Unl
Heat Index: 59°   Visibility: 10mi
Dew Point: 51°   Wind: 5mph
Humidity: 75%   Direction: 250°WSW
Pressure: 30.16"   Gusts: NA
Location:  32.8972°N, 107.644°W
Report Text: KTCS 230553Z AUTO 25004KT 10SM CLR 15/11 A3016 RMK AO2 SLP153 T01500106 10222 20144 50005 TSNO $
Loading
Personal Weather Stations






























Interactive Weather Map
Tropical Storm Tracking
New forecast layout! Learn more

10-Day Weather Forecast

Advertisements
Track Severe Weather on mobile